createdAt,value
2023-02-27T00:04:20.838Z,-0.66
2023-02-27T00:09:24.587Z,-0.71
2023-02-27T00:14:26.524Z,-0.77
2023-02-27T00:19:28.483Z,-0.85
2023-02-27T00:24:30.433Z,-0.95
2023-02-27T00:30:32.177Z,-1.03
2023-02-27T00:36:01.834Z,-1.07
2023-02-27T00:41:04.030Z,-1.10
2023-02-27T00:46:06.309Z,-1.09
2023-02-27T00:52:07.991Z,-1.05
2023-02-27T00:58:29.685Z,-1.02
2023-02-27T01:04:38.010Z,-0.98
2023-02-27T01:10:22.062Z,-0.92
2023-02-27T01:16:24.083Z,-0.83
2023-02-27T01:22:54.418Z,-0.70
2023-02-27T01:28:32.038Z,-0.65
2023-02-27T01:33:34.046Z,-0.68
2023-02-27T01:39:35.770Z,-0.66
2023-02-27T01:45:32.612Z,-0.65
2023-02-27T01:51:02.442Z,-0.62
2023-02-27T01:56:11.406Z,-0.55
2023-02-27T02:01:14.337Z,-0.50
2023-02-27T02:06:16.567Z,-0.50
2023-02-27T02:12:18.934Z,-0.52
2023-02-27T02:18:49.370Z,-0.54
2023-02-27T02:25:20.557Z,-0.57
2023-02-27T02:30:57.850Z,-0.58
2023-02-27T02:36:14.666Z,-0.50
2023-02-27T02:41:26.019Z,-0.46
2023-02-27T02:46:40.093Z,-0.44
2023-02-27T02:51:51.623Z,-0.40
2023-02-27T02:57:05.125Z,-0.39
2023-02-27T03:03:07.761Z,-0.42
2023-02-27T03:09:29.567Z,-0.49
2023-02-27T03:14:56.586Z,-0.56
2023-02-27T03:20:07.108Z,-0.55
2023-02-27T03:25:12.362Z,-0.53
2023-02-27T03:31:30.423Z,-0.53
2023-02-27T03:37:18.493Z,-0.56
2023-02-27T03:42:53.485Z,-0.60
2023-02-27T03:48:09.169Z,-0.61
2023-02-27T03:54:14.088Z,-0.63
2023-02-27T03:59:37.847Z,-0.61
2023-02-27T04:05:39.867Z,-0.60
2023-02-27T04:12:02.968Z,-0.60
2023-02-27T04:17:23.556Z,-0.62
2023-02-27T04:22:39.163Z,-0.66
2023-02-27T04:27:53.008Z,-0.69
2023-02-27T04:33:43.570Z,-0.68
2023-02-27T04:40:05.207Z,-0.66
2023-02-27T04:46:26.925Z,-0.65
2023-02-27T04:52:54.344Z,-0.65
2023-02-27T04:59:18.675Z,-0.68
2023-02-27T05:05:40.322Z,-0.73
2023-02-27T05:11:15.556Z,-0.77
2023-02-27T05:16:22.058Z,-0.74
2023-02-27T05:21:48.748Z,-0.69
2023-02-27T05:27:02.604Z,-0.63
2023-02-27T05:32:19.007Z,-0.62
2023-02-27T05:37:28.816Z,-0.61
2023-02-27T05:42:38.449Z,-0.64
2023-02-27T05:47:46.414Z,-0.67
2023-02-27T05:52:50.105Z,-0.68
2023-02-27T05:58:20.930Z,-0.70
2023-02-27T06:03:23.500Z,-0.66
2023-02-27T06:08:25.515Z,-0.56
2023-02-27T06:13:27.684Z,-0.49
2023-02-27T06:18:29.853Z,-0.48
2023-02-27T06:23:31.851Z,-0.49
2023-02-27T06:28:33.776Z,-0.51
2023-02-27T06:33:35.728Z,-0.50
2023-02-27T06:38:37.679Z,-0.46
2023-02-27T06:43:39.636Z,-0.39
2023-02-27T06:49:41.367Z,-0.32
2023-02-27T06:56:03.007Z,-0.26
2023-02-27T07:02:24.785Z,-0.17
2023-02-27T07:07:46.696Z,-0.09
2023-02-27T07:12:48.774Z,0.03
2023-02-27T07:17:51.117Z,0.19
2023-02-27T07:22:53.159Z,0.39
2023-02-27T07:27:55.359Z,0.58
2023-02-27T07:32:57.246Z,0.78
2023-02-27T07:37:59.192Z,0.91
2023-02-27T07:43:01.074Z,0.98
2023-02-27T07:48:03.024Z,1.16
2023-02-27T07:53:08.100Z,1.37
2023-02-27T07:58:10.266Z,1.55
2023-02-27T08:03:12.342Z,1.65
2023-02-27T08:08:14.306Z,1.79
2023-02-27T08:13:20.537Z,1.89
2023-02-27T08:18:25.870Z,1.99
2023-02-27T08:23:27.848Z,2.10
2023-02-27T08:28:50.198Z,2.12
2023-02-27T08:34:01.110Z,2.18
2023-02-27T08:39:20.442Z,2.34
2023-02-27T08:44:22.604Z,2.44
2023-02-27T08:49:29.671Z,2.41
2023-02-27T08:54:32.251Z,2.28
2023-02-27T08:59:34.307Z,2.19
2023-02-27T09:04:36.448Z,2.16
2023-02-27T09:09:38.268Z,2.21
2023-02-27T09:14:40.295Z,2.32
2023-02-27T09:19:42.276Z,2.49
2023-02-27T09:24:47.306Z,2.64
2023-02-27T09:29:57.462Z,2.85
2023-02-27T09:35:00.594Z,3.29
2023-02-27T09:40:14.338Z,3.86
2023-02-27T09:45:28.002Z,4.78
2023-02-27T09:50:52.660Z,5.86
2023-02-27T09:56:00.774Z,6.78
2023-02-27T10:01:46.047Z,7.66
2023-02-27T10:07:17.012Z,8.30
2023-02-27T10:12:40.090Z,8.81
2023-02-27T10:17:50.222Z,9.08
2023-02-27T10:22:55.700Z,8.62
2023-02-27T10:28:06.299Z,7.98
2023-02-27T10:33:11.062Z,7.24
2023-02-27T10:38:19.752Z,6.69
2023-02-27T10:43:22.096Z,6.24
2023-02-27T10:48:24.287Z,6.09
2023-02-27T10:53:28.056Z,6.59
2023-02-27T10:58:35.307Z,6.96
2023-02-27T11:03:41.477Z,6.67
2023-02-27T11:08:43.960Z,6.01
2023-02-27T11:13:46.012Z,5.39
2023-02-27T11:18:50.197Z,4.98
2023-02-27T11:23:59.192Z,4.85
2023-02-27T11:29:11.803Z,4.99
2023-02-27T11:34:22.283Z,5.11
2023-02-27T11:39:29.105Z,5.03
2023-02-27T11:44:49.830Z,5.09
2023-02-27T11:50:10.535Z,5.24
2023-02-27T11:55:16.118Z,5.83
2023-02-27T12:00:23.708Z,6.53
2023-02-27T12:05:28.060Z,6.51
2023-02-27T12:10:47.623Z,6.12
2023-02-27T12:15:58.684Z,5.53
2023-02-27T12:21:07.380Z,5.03
2023-02-27T12:26:22.390Z,4.78
2023-02-27T12:31:36.035Z,5.37
2023-02-27T12:36:38.919Z,6.40
2023-02-27T12:42:25.540Z,7.39
2023-02-27T12:48:03.465Z,7.78
2023-02-27T12:53:20.604Z,6.83
2023-02-27T12:58:32.980Z,5.92
2023-02-27T13:03:37.803Z,5.29
2023-02-27T13:09:04.306Z,4.96
2023-02-27T13:14:36.885Z,5.13
2023-02-27T13:19:50.417Z,5.68
2023-02-27T13:24:57.559Z,5.75
2023-02-27T13:30:39.694Z,5.59
2023-02-27T13:35:57.834Z,5.55
2023-02-27T13:41:21.699Z,5.86
2023-02-27T13:46:23.848Z,5.86
2023-02-27T13:52:35.722Z,5.70
2023-02-27T13:59:30.688Z,5.08
2023-02-27T14:06:29.840Z,4.30
2023-02-27T14:13:34.217Z,3.55
2023-02-27T14:20:41.010Z,3.02
2023-02-27T14:27:44.357Z,2.83
2023-02-27T14:34:47.818Z,2.86
2023-02-27T14:42:09.422Z,2.86
2023-02-27T14:49:18.079Z,2.85
2023-02-27T14:56:28.216Z,2.81
2023-02-27T15:03:33.066Z,2.70
2023-02-27T15:10:39.630Z,2.53
2023-02-27T15:17:07.489Z,2.33
2023-02-27T15:23:55.618Z,2.18
2023-02-27T15:30:43.151Z,2.02
2023-02-27T15:37:18.315Z,1.92
2023-02-27T15:44:25.614Z,1.76
2023-02-27T15:51:20.065Z,1.71
2023-02-27T15:58:26.908Z,1.56
2023-02-27T16:05:12.362Z,1.40
2023-02-27T16:12:25.100Z,1.22
2023-02-27T16:19:34.365Z,1.06
2023-02-27T16:26:42.667Z,0.85
2023-02-27T16:33:46.764Z,0.64
2023-02-27T16:41:02.454Z,0.47
2023-02-27T16:48:06.028Z,0.37
2023-02-27T16:54:33.108Z,0.28
2023-02-27T17:01:45.319Z,0.16
2023-02-27T17:08:06.905Z,0.01
2023-02-27T17:15:10.251Z,-0.12
2023-02-27T17:22:13.710Z,-0.26
2023-02-27T17:29:05.348Z,-0.36
2023-02-27T17:36:08.951Z,-0.38
2023-02-27T17:42:55.054Z,-0.35
2023-02-27T17:49:58.588Z,-0.32
2023-02-27T17:57:02.165Z,-0.33
2023-02-27T18:03:39.480Z,-0.37
2023-02-27T18:10:48.568Z,-0.45
2023-02-27T18:17:52.384Z,-0.56
2023-02-27T18:25:02.868Z,-0.59
2023-02-27T18:31:56.861Z,-0.59
2023-02-27T18:39:09.654Z,-0.60
2023-02-27T18:46:13.291Z,-0.57
2023-02-27T18:53:17.849Z,-0.56
2023-02-27T19:00:26.243Z,-0.51
2023-02-27T19:07:30.929Z,-0.49
2023-02-27T19:14:17.280Z,-0.45
2023-02-27T19:21:22.303Z,-0.41
2023-02-27T19:28:05.786Z,-0.39
2023-02-27T19:34:33.907Z,-0.37
2023-02-27T19:41:12.492Z,-0.37
2023-02-27T19:47:11.251Z,-0.38
2023-02-27T19:53:38.336Z,-0.40
2023-02-27T20:00:41.511Z,-0.40
2023-02-27T20:07:40.619Z,-0.43
2023-02-27T20:14:05.634Z,-0.49
2023-02-27T20:19:33.134Z,-0.53
2023-02-27T20:26:16.059Z,-0.59
2023-02-27T20:31:51.043Z,-0.63
2023-02-27T20:37:22.561Z,-0.65
2023-02-27T20:43:18.579Z,-0.65
2023-02-27T20:50:08.272Z,-0.68
2023-02-27T20:56:17.859Z,-0.71
2023-02-27T21:01:54.196Z,-0.72
2023-02-27T21:08:14.831Z,-0.71
2023-02-27T21:14:21.786Z,-0.69
2023-02-27T21:20:40.215Z,-0.70
2023-02-27T21:27:08.508Z,-0.75
2023-02-27T21:33:33.118Z,-0.83
2023-02-27T21:40:11.635Z,-0.87
2023-02-27T21:45:26.146Z,-0.88
2023-02-27T21:51:43.978Z,-0.88
2023-02-27T21:58:32.375Z,-0.82
2023-02-27T22:05:24.465Z,-0.76
2023-02-27T22:12:16.285Z,-0.70
2023-02-27T22:18:33.976Z,-0.68
2023-02-27T22:24:37.630Z,-0.64
2023-02-27T22:31:35.853Z,-0.60
2023-02-27T22:38:01.143Z,-0.30
2023-02-27T22:44:38.347Z,-0.31
2023-02-27T22:50:33.300Z,-0.32
2023-02-27T23:04:58.620Z,-0.39
2023-02-27T23:11:47.987Z,-0.41
2023-02-27T23:18:40.499Z,-0.38
2023-02-27T23:25:37.124Z,-0.41
2023-02-27T23:32:14.552Z,-0.42
2023-02-27T23:38:39.832Z,-0.43
2023-02-27T23:45:43.320Z,-0.27
2023-02-27T23:52:32.224Z,0.03
2023-02-27T23:59:09.449Z,-0.04
